Bucyrus, North Dakota
Current Conditions -  °F | °C
As of 2:53 AM on Sunday 25 Jan 2015 (Local Time) from KHEI Reporting Station
Overcast Overcast  
Wind Chill: 22°   Ceiling: 3700
Heat Index: 33°   Visibility: 10mi
Dew Point: 28°   Wind: 17mph
Humidity: 82%   Direction: 300°WNW
Pressure: 29.98"   Gusts: NA
Location:  46.0942°N, 102.462°W
Report Text: KHEI 250953Z AUTO 30015KT 10SM OVC037 01/M02 A2998 RMK AO2 SLP172 T00061022
Loading
Personal Weather Stations






























Interactive Weather Map New forecast layout! Learn more

10-Day Weather Forecast

Advertisements
Track Severe Weather on mobile